createdAt,value
2018-12-18T00:07:49.477Z,6.65
2018-12-18T00:13:07.722Z,6.49
2018-12-18T00:18:18.612Z,6.53
2018-12-18T00:23:30.616Z,6.56
2018-12-18T00:28:43.530Z,6.56
2018-12-18T00:33:55.501Z,6.52
2018-12-18T00:39:04.632Z,6.54
2018-12-18T00:41:33.950Z,6.54
2018-12-18T00:46:46.055Z,6.57
2018-12-18T00:51:56.929Z,6.57
2018-12-18T00:54:26.352Z,6.54
2018-12-18T00:59:37.163Z,6.57
2018-12-18T01:04:49.767Z,6.63
2018-12-18T01:10:01.630Z,6.68
2018-12-18T01:12:31.083Z,6.72
2018-12-18T01:17:42.170Z,6.72
2018-12-18T01:22:56.097Z,6.69
2018-12-18T01:28:06.961Z,6.67
2018-12-18T01:33:18.957Z,6.53
2018-12-18T01:38:29.866Z,6.42
2018-12-18T01:43:41.746Z,6.31
2018-12-18T01:48:52.837Z,6.16
2018-12-18T01:54:04.877Z,6.07
2018-12-18T01:59:15.810Z,6.04
2018-12-18T02:04:27.683Z,6.01
2018-12-18T02:09:38.531Z,5.95
2018-12-18T02:12:07.851Z,5.89
2018-12-18T02:17:19.793Z,5.90
2018-12-18T02:22:33.730Z,5.82
2018-12-18T02:27:44.962Z,5.74
2018-12-18T02:32:56.954Z,5.64
2018-12-18T02:38:08.114Z,5.61
2018-12-18T02:40:37.451Z,5.61
2018-12-18T02:45:49.402Z,5.67
2018-12-18T02:51:00.224Z,5.73
2018-12-18T02:56:12.241Z,5.65
2018-12-18T03:01:23.207Z,5.67
2018-12-18T03:03:52.628Z,5.64
2018-12-18T03:09:05.727Z,5.53
2018-12-18T03:14:17.588Z,5.50
2018-12-18T03:19:28.519Z,5.38
2018-12-18T03:21:57.810Z,5.41
2018-12-18T03:24:27.237Z,5.32
2018-12-18T03:29:38.225Z,5.33
2018-12-18T03:34:55.507Z,5.30
2018-12-18T03:40:07.139Z,5.21
2018-12-18T03:45:19.027Z,5.14
2018-12-18T03:50:30.941Z,5.21
2018-12-18T03:55:42.870Z,5.09
2018-12-18T04:00:53.823Z,4.97
2018-12-18T04:06:05.818Z,4.94
2018-12-18T04:11:36.034Z,4.98
2018-12-18T04:16:47.932Z,4.96
2018-12-18T04:21:58.938Z,4.93
2018-12-18T04:27:10.812Z,4.96
2018-12-18T04:32:21.926Z,4.91
2018-12-18T04:37:32.834Z,4.91
2018-12-18T04:42:45.193Z,4.91
2018-12-18T04:47:55.994Z,4.93
2018-12-18T04:53:07.956Z,4.85
2018-12-18T04:58:18.821Z,4.82
2018-12-18T05:03:30.768Z,4.90
2018-12-18T05:08:41.583Z,4.91
2018-12-18T05:13:53.611Z,4.94
2018-12-18T05:19:04.626Z,5.02
2018-12-18T05:24:16.556Z,5.02
2018-12-18T05:29:27.438Z,5.07
2018-12-18T05:34:39.297Z,5.06
2018-12-18T05:39:51.781Z,5.08
2018-12-18T05:45:03.846Z,5.08
2018-12-18T05:50:14.805Z,5.15
2018-12-18T05:55:26.910Z,5.19
2018-12-18T06:00:37.785Z,5.21
2018-12-18T06:05:49.845Z,5.13
2018-12-18T06:11:00.770Z,5.00
2018-12-18T06:16:12.705Z,4.98
2018-12-18T06:21:23.584Z,4.90
2018-12-18T06:23:53.023Z,4.90
2018-12-18T06:29:03.922Z,4.90
2018-12-18T06:34:16.032Z,4.86
2018-12-18T06:39:27.130Z,4.83
2018-12-18T06:44:38.986Z,4.79
2018-12-18T06:49:50.061Z,4.80
2018-12-18T06:55:02.058Z,4.79
2018-12-18T07:00:13.653Z,4.81
2018-12-18T07:05:25.577Z,4.82
2018-12-18T07:10:36.465Z,4.86
2018-12-18T07:15:48.401Z,4.92
2018-12-18T07:21:01.392Z,4.99
2018-12-18T07:26:13.555Z,4.99
2018-12-18T07:31:24.937Z,4.99
2018-12-18T07:36:39.221Z,5.00
2018-12-18T07:41:51.890Z,5.04
2018-12-18T07:47:04.465Z,5.14
2018-12-18T07:52:15.688Z,5.14
2018-12-18T07:57:26.787Z,5.23
2018-12-18T07:59:56.374Z,5.23
2018-12-18T08:05:08.939Z,5.34
2018-12-18T08:10:20.281Z,5.50
2018-12-18T08:15:32.767Z,5.74
2018-12-18T08:20:43.978Z,6.02
2018-12-18T08:25:56.352Z,6.09
2018-12-18T08:31:07.800Z,6.25
2018-12-18T08:36:22.053Z,6.51
2018-12-18T08:41:34.694Z,6.54
2018-12-18T08:46:47.377Z,6.71
2018-12-18T08:51:59.189Z,7.15
2018-12-18T08:57:12.393Z,7.39
2018-12-18T09:02:23.545Z,7.64
2018-12-18T09:07:36.710Z,7.53
2018-12-18T09:12:51.482Z,7.73
2018-12-18T09:18:16.116Z,7.85
2018-12-18T09:23:31.787Z,7.61
2018-12-18T09:28:43.023Z,7.90
2018-12-18T09:33:52.447Z,8.12
2018-12-18T09:39:12.618Z,8.50
2018-12-18T09:44:31.081Z,8.18
2018-12-18T09:49:42.948Z,8.87
2018-12-18T09:54:54.975Z,8.82
2018-12-18T10:00:18.901Z,9.15
2018-12-18T10:05:32.913Z,9.13
2018-12-18T10:10:44.027Z,9.56
2018-12-18T10:15:55.967Z,8.97
2018-12-18T10:21:08.990Z,9.36
2018-12-18T10:26:20.886Z,9.40
2018-12-18T10:31:31.983Z,9.77
2018-12-18T10:36:40.436Z,10.34
2018-12-18T10:41:51.415Z,10.03
2018-12-18T10:47:04.662Z,9.68
2018-12-18T10:52:15.852Z,9.47
2018-12-18T10:57:27.966Z,9.71
2018-12-18T11:02:43.936Z,9.89
2018-12-18T11:07:57.281Z,9.42
2018-12-18T11:13:14.389Z,9.23
2018-12-18T11:18:25.584Z,9.17
2018-12-18T11:23:37.618Z,9.35
2018-12-18T11:28:48.733Z,9.48
2018-12-18T11:31:18.162Z,9.48
2018-12-18T11:33:47.483Z,9.19
2018-12-18T11:38:59.021Z,9.10
2018-12-18T11:44:10.911Z,9.22
2018-12-18T11:49:21.997Z,9.14
2018-12-18T11:54:33.870Z,9.18
2018-12-18T11:59:47.515Z,9.52
2018-12-18T12:04:59.506Z,9.51
2018-12-18T12:10:10.439Z,9.54
2018-12-18T12:15:24.397Z,9.44
2018-12-18T12:20:35.362Z,9.67
2018-12-18T12:25:50.706Z,9.62
2018-12-18T12:31:02.016Z,9.67
2018-12-18T12:36:14.249Z,9.89
2018-12-18T12:41:25.662Z,9.80
2018-12-18T12:46:38.378Z,9.73
2018-12-18T12:52:01.745Z,9.89
2018-12-18T12:57:16.399Z,9.68
2018-12-18T13:02:27.685Z,9.38
2018-12-18T13:07:38.734Z,9.51
2018-12-18T13:12:50.947Z,9.05
2018-12-18T13:18:02.166Z,9.03
2018-12-18T13:23:14.603Z,8.92
2018-12-18T13:28:25.666Z,8.92
2018-12-18T13:33:37.834Z,9.01
2018-12-18T13:38:49.257Z,8.78
2018-12-18T13:44:01.488Z,8.54
2018-12-18T13:49:12.560Z,8.22
2018-12-18T13:54:25.911Z,8.02
2018-12-18T13:59:37.034Z,7.94
2018-12-18T14:04:49.868Z,7.83
2018-12-18T14:10:00.866Z,7.66
2018-12-18T14:15:22.382Z,7.62
2018-12-18T14:20:33.623Z,7.39
2018-12-18T14:25:47.906Z,7.18
2018-12-18T14:30:58.938Z,7.02
2018-12-18T14:36:11.227Z,6.91
2018-12-18T14:41:22.037Z,6.82
2018-12-18T14:46:34.000Z,6.79
2018-12-18T14:51:45.087Z,6.68
2018-12-18T14:57:00.266Z,6.67
2018-12-18T15:02:11.439Z,6.58
2018-12-18T15:07:23.475Z,6.55
2018-12-18T15:12:37.330Z,6.48
2018-12-18T15:17:49.923Z,6.53
2018-12-18T15:23:02.083Z,6.46
2018-12-18T15:28:13.262Z,6.41
2018-12-18T15:33:26.761Z,6.37
2018-12-18T15:38:37.926Z,6.42
2018-12-18T15:43:49.937Z,6.38
2018-12-18T15:49:01.148Z,6.39
2018-12-18T15:54:13.095Z,6.39
2018-12-18T15:59:24.407Z,6.36
2018-12-18T16:04:36.299Z,6.40
2018-12-18T16:09:47.334Z,6.36
2018-12-18T16:14:59.278Z,6.35
2018-12-18T16:20:11.760Z,6.36
2018-12-18T16:25:23.834Z,6.33
2018-12-18T16:30:34.896Z,6.37
2018-12-18T16:35:47.163Z,6.37
2018-12-18T16:40:59.271Z,6.39
2018-12-18T16:46:07.749Z,6.37
2018-12-18T16:51:18.753Z,6.40
2018-12-18T16:53:48.217Z,6.41
2018-12-18T16:58:59.392Z,6.39
2018-12-18T17:04:11.507Z,6.43
2018-12-18T17:09:22.617Z,6.44
2018-12-18T17:14:34.659Z,6.42
2018-12-18T17:19:45.775Z,6.43
2018-12-18T17:24:57.974Z,6.38
2018-12-18T17:30:11.661Z,6.41
2018-12-18T17:35:23.754Z,6.38
2018-12-18T17:40:35.232Z,6.29
2018-12-18T17:45:48.474Z,6.27
2018-12-18T17:50:59.363Z,6.28
2018-12-18T17:56:11.772Z,6.22
2018-12-18T18:01:22.733Z,6.23
2018-12-18T18:06:35.058Z,6.16
2018-12-18T18:11:49.937Z,6.17
2018-12-18T18:17:04.281Z,6.14
2018-12-18T18:22:15.687Z,6.11
2018-12-18T18:32:36.140Z,6.08
2018-12-18T18:37:49.711Z,6.04
2018-12-18T18:43:02.412Z,6.05
2018-12-18T18:48:13.875Z,6.13
2018-12-18T18:53:29.140Z,6.07
2018-12-18T18:58:41.068Z,6.09
2018-12-18T19:03:53.758Z,6.07
2018-12-18T19:09:08.493Z,6.15
2018-12-18T19:14:21.199Z,6.13
2018-12-18T19:19:32.495Z,6.10
2018-12-18T19:24:44.621Z,6.20
2018-12-18T19:29:55.790Z,6.15
2018-12-18T19:35:08.716Z,6.21
2018-12-18T19:40:20.152Z,6.21
2018-12-18T19:45:34.413Z,6.29
2018-12-18T19:50:52.761Z,6.35
2018-12-18T19:56:05.394Z,6.41
2018-12-18T20:01:17.659Z,6.44
2018-12-18T20:03:47.686Z,6.41
2018-12-18T20:09:09.408Z,6.43
2018-12-18T20:14:21.622Z,6.45
2018-12-18T20:19:33.177Z,6.47
2018-12-18T20:24:46.442Z,6.49
2018-12-18T20:29:58.203Z,6.47
2018-12-18T20:35:13.981Z,6.49
2018-12-18T20:40:28.954Z,6.56
2018-12-18T20:42:58.506Z,6.52
2018-12-18T20:48:11.969Z,6.51
2018-12-18T20:53:27.466Z,6.47
2018-12-18T20:58:39.114Z,6.48
2018-12-18T21:03:51.962Z,6.53
2018-12-18T21:09:09.348Z,6.53
2018-12-18T21:14:23.428Z,6.57
2018-12-18T21:19:34.810Z,6.51
2018-12-18T21:24:51.531Z,6.53
2018-12-18T21:30:03.141Z,6.56
2018-12-18T21:35:16.238Z,6.57
2018-12-18T21:40:28.300Z,6.57
2018-12-18T21:42:58.581Z,6.59
2018-12-18T21:48:09.955Z,6.60
2018-12-18T21:53:22.175Z,6.63
2018-12-18T21:58:34.303Z,6.60
2018-12-18T22:03:47.357Z,6.65
2018-12-18T22:08:59.044Z,6.62
2018-12-18T22:14:11.630Z,6.64
2018-12-18T22:19:23.175Z,6.65
2018-12-18T22:24:36.467Z,6.67
2018-12-18T22:29:47.419Z,6.71
2018-12-18T22:34:59.472Z,6.70
2018-12-18T22:40:10.521Z,6.70
2018-12-18T22:45:22.572Z,6.67
2018-12-18T22:50:33.530Z,6.68
2018-12-18T22:55:45.602Z,6.67
2018-12-18T23:01:02.562Z,6.61
2018-12-18T23:06:14.714Z,6.59
2018-12-18T23:11:26.241Z,6.65
2018-12-18T23:16:38.246Z,6.65
2018-12-18T23:21:49.281Z,6.68
2018-12-18T23:27:01.114Z,6.74
2018-12-18T23:32:12.176Z,6.79
2018-12-18T23:34:41.485Z,6.74
2018-12-18T23:39:52.299Z,6.82
2018-12-18T23:45:04.535Z,6.85
2018-12-18T23:50:15.608Z,6.85
2018-12-18T23:52:44.927Z,6.86
2018-12-18T23:57:55.928Z,6.84
